Time;durP1;ratioP1;P1;durP2;ratioP2;P2;SDS_P1;SDS_P2;PMS_P1;PMS_P2;Temp;Humidity;BMP_temperature;BMP_pressure;BME280_temperature;BME280_humidity;BME280_pressure;Samples;Min_cycle;Max_cycle;Signal;HPM_P1;HPM_P2
2023/07/08 00:00:15;;;;;;;1.43;0.90;;;23.20;74.70;;;;;;5024060;28;21008;-85
2023/07/08 00:02:42;;;;;;;1.43;0.90;;;23.20;73.80;;;;;;5022502;28;20951;-85
2023/07/08 00:05:10;;;;;;;1.47;0.90;;;23.20;74.00;;;;;;5016960;28;20464;-85
2023/07/08 00:07:37;;;;;;;1.40;0.90;;;23.20;74.00;;;;;;5015787;28;20457;-84
2023/07/08 00:10:14;;;;;;;1.43;0.90;;;23.20;73.80;;;;;;5009497;28;20462;-85
2023/07/08 00:12:42;;;;;;;1.50;1.10;;;23.20;74.00;;;;;;5015839;28;20470;-84
2023/07/08 00:15:11;;;;;;;1.47;0.83;;;23.20;74.30;;;;;;5016237;28;20849;-85
2023/07/08 00:17:38;;;;;;;1.47;1.00;;;23.20;74.10;;;;;;5013323;28;20496;-84
2023/07/08 00:20:20;;;;;;;1.47;0.90;;;23.20;75.20;;;;;;5010840;28;20464;-85
2023/07/08 00:22:49;;;;;;;1.47;0.90;;;23.10;74.90;;;;;;5015136;28;20472;-84
2023/07/08 00:25:16;;;;;;;1.40;0.90;;;23.10;75.20;;;;;;5013858;28;20464;-84
2023/07/08 00:27:43;;;;;;;1.40;0.90;;;23.10;76.30;;;;;;5015699;28;20837;-86
2023/07/08 00:30:21;;;;;;;1.43;0.90;;;23.00;76.80;;;;;;5015865;28;20464;-86
2023/07/08 00:32:53;;;;;;;1.43;0.90;;;23.00;77.60;;;;;;5016059;28;20475;-85
2023/07/08 00:35:22;;;;;;;1.43;0.90;;;23.00;78.00;;;;;;5014786;28;20456;-86
2023/07/08 00:37:52;;;;;;;1.43;0.90;;;22.90;77.70;;;;;;5017467;28;20548;-85
2023/07/08 00:40:20;;;;;;;1.43;0.90;;;22.90;78.40;;;;;;5012277;28;20464;-83
2023/07/08 00:42:49;;;;;;;1.50;1.10;;;22.80;78.80;;;;;;5014914;28;20456;-84
2023/07/08 00:45:33;;;;;;;1.47;0.90;;;22.80;79.40;;;;;;5014911;28;20483;-85
2023/07/08 00:48:08;;;;;;;1.40;0.90;;;22.80;79.10;;;;;;5014302;28;20479;-85
2023/07/08 00:50:35;;;;;;;1.43;0.90;;;22.70;77.30;;;;;;5015455;28;20464;-84
2023/07/08 00:53:25;;;;;;;1.43;0.90;;;22.70;76.70;;;;;;5015318;28;20475;-84
2023/07/08 00:55:55;;;;;;;1.43;0.90;;;22.60;77.60;;;;;;5015726;28;20803;-84
2023/07/08 00:58:24;;;;;;;1.50;0.90;;;22.60;78.70;;;;;;5013619;28;20531;-85
2023/07/08 01:00:54;;;;;;;1.50;0.90;;;22.60;78.80;;;;;;5014783;28;20469;-82
2023/07/08 01:03:22;;;;;;;1.63;1.30;;;22.50;78.60;;;;;;5011715;28;20476;-84
2023/07/08 01:05:50;;;;;;;1.47;0.90;;;22.40;79.40;;;;;;5014467;28;20474;-84
2023/07/08 01:08:17;;;;;;;1.47;0.90;;;22.40;80.50;;;;;;5016672;28;20487;-85
2023/07/08 01:10:49;;;;;;;1.43;0.90;;;22.30;80.80;;;;;;5014746;28;20456;-85
2023/07/08 01:13:17;;;;;;;1.47;0.90;;;22.20;80.80;;;;;;5021000;28;20480;-82
2023/07/08 01:15:48;;;;;;;1.50;0.90;;;22.20;80.90;;;;;;5017465;28;20471;-83
2023/07/08 01:18:20;;;;;;;1.43;0.90;;;22.10;81.80;;;;;;5005533;28;20520;-84
2023/07/08 01:20:48;;;;;;;1.50;0.90;;;22.10;81.70;;;;;;5017702;28;20464;-83
2023/07/08 01:23:16;;;;;;;1.40;0.90;;;22.00;82.20;;;;;;5014869;28;20468;-84
2023/07/08 01:25:45;;;;;;;1.43;0.90;;;22.00;82.30;;;;;;5015815;28;20464;-84
2023/07/08 01:28:12;;;;;;;1.47;0.90;;;22.00;82.90;;;;;;5013996;28;20487;-84
2023/07/08 01:30:42;;;;;;;1.50;0.90;;;22.00;82.90;;;;;;5015219;28;20499;-85
2023/07/08 01:33:17;;;;;;;1.43;0.80;;;22.00;83.70;;;;;;5014606;28;20464;-82
2023/07/08 01:35:44;;;;;;;1.50;0.90;;;21.90;84.50;;;;;;5015478;28;20464;-85
2023/07/08 01:38:13;;;;;;;1.43;0.90;;;21.90;84.90;;;;;;5011317;28;20492;-85
2023/07/08 01:40:50;;;;;;;1.47;0.90;;;21.90;85.10;;;;;;5022186;28;20471;-84
2023/07/08 01:43:17;;;;;;;1.47;0.90;;;21.90;85.70;;;;;;5013821;28;20466;-86
2023/07/08 01:45:44;;;;;;;1.40;0.90;;;21.90;86.90;;;;;;5015993;28;20488;-85
2023/07/08 01:48:15;;;;;;;1.50;0.90;;;21.90;86.40;;;;;;5014527;28;20476;-83
2023/07/08 01:50:45;;;;;;;1.50;0.90;;;22.00;86.70;;;;;;5014529;28;20476;-85
2023/07/08 01:53:15;;;;;;;1.43;0.90;;;22.00;86.40;;;;;;5013954;28;20471;-85
2023/07/08 01:55:43;;;;;;;1.47;0.90;;;21.90;87.60;;;;;;5015223;28;20461;-85
2023/07/08 01:58:10;;;;;;;1.47;1.00;;;22.00;86.90;;;;;;5012822;28;21029;-84
2023/07/08 02:00:37;;;;;;;1.43;0.90;;;22.00;87.00;;;;;;5012670;28;20460;-84
2023/07/08 02:03:03;;;;;;;1.40;0.90;;;21.90;87.40;;;;;;5008614;28;20469;-85
2023/07/08 02:05:30;;;;;;;4.70;1.87;;;21.90;87.70;;;;;;5014092;28;20482;-85
2023/07/08 02:07:57;;;;;;;1.43;0.90;;;21.90;87.60;;;;;;5017937;28;20479;-85
2023/07/08 02:10:25;;;;;;;1.47;0.90;;;21.90;87.90;;;;;;5013245;28;20464;-84
2023/07/08 02:12:53;;;;;;;1.50;0.90;;;21.90;88.20;;;;;;5015731;28;20550;-84
2023/07/08 02:15:20;;;;;;;1.40;0.90;;;21.90;87.40;;;;;;5013975;28;20513;-85
2023/07/08 02:17:46;;;;;;;1.40;0.90;;;21.90;86.70;;;;;;5015205;28;20480;-85
2023/07/08 02:20:13;;;;;;;1.50;0.90;;;21.90;87.30;;;;;;5013298;28;20463;-84
2023/07/08 02:22:40;;;;;;;1.40;0.90;;;21.90;87.30;;;;;;5015477;28;20555;-85
2023/07/08 02:25:09;;;;;;;1.50;0.90;;;21.80;88.10;;;;;;5013789;28;20500;-85
2023/07/08 02:27:35;;;;;;;1.47;0.90;;;21.80;88.40;;;;;;5012295;28;20948;-85
2023/07/08 02:30:05;;;;;;;1.47;0.90;;;21.80;88.40;;;;;;5013738;28;20464;-86
2023/07/08 02:32:35;;;;;;;1.47;0.90;;;21.80;88.50;;;;;;5015416;28;20487;-86
2023/07/08 02:35:02;;;;;;;1.43;0.90;;;21.80;89.30;;;;;;5013995;28;21033;-83
2023/07/08 02:37:29;;;;;;;1.50;0.90;;;21.80;88.60;;;;;;5016438;28;20546;-86
2023/07/08 02:39:56;;;;;;;1.40;0.90;;;21.70;89.50;;;;;;5011069;28;20488;-85
2023/07/08 02:42:23;;;;;;;1.50;0.90;;;21.70;89.20;;;;;;5014667;28;20514;-82
2023/07/08 02:44:50;;;;;;;1.50;0.90;;;21.60;89.90;;;;;;5014127;28;20459;-84
2023/07/08 02:47:18;;;;;;;1.50;0.90;;;21.60;89.90;;;;;;5013202;28;20456;-83
2023/07/08 02:49:45;;;;;;;1.47;0.90;;;21.50;89.40;;;;;;5014086;28;20555;-85
2023/07/08 02:52:12;;;;;;;1.47;0.90;;;21.50;89.00;;;;;;5014125;28;20481;-85
2023/07/08 02:54:39;;;;;;;1.43;0.90;;;21.50;89.50;;;;;;5014328;28;20483;-84
2023/07/08 02:57:06;;;;;;;1.47;0.90;;;21.50;89.10;;;;;;5013771;28;21008;-85
2023/07/08 02:59:32;;;;;;;1.40;0.90;;;21.50;89.70;;;;;;5013421;28;20491;-85
2023/07/08 03:01:59;;;;;;;1.50;0.90;;;21.50;89.10;;;;;;5014395;28;20476;-85
2023/07/08 03:04:27;;;;;;;1.50;0.90;;;21.40;89.80;;;;;;5012873;28;20549;-84
2023/07/08 03:06:54;;;;;;;1.50;0.90;;;21.40;90.10;;;;;;5011077;28;20912;-84
2023/07/08 03:09:21;;;;;;;1.43;0.90;;;21.40;90.40;;;;;;5016049;28;20483;-84
2023/07/08 03:11:48;;;;;;;1.47;0.90;;;21.40;90.30;;;;;;5009382;28;20464;-84
2023/07/08 03:14:14;;;;;;;1.43;0.90;;;21.40;90.10;;;;;;5007852;28;20464;-84
2023/07/08 03:16:41;;;;;;;1.43;0.90;;;21.30;90.00;;;;;;5006950;28;20464;-84
2023/07/08 03:19:11;;;;;;;1.47;0.90;;;21.30;90.60;;;;;;5004969;28;20499;-85
2023/07/08 03:21:39;;;;;;;1.47;0.90;;;21.30;90.70;;;;;;5001964;28;20476;-84
2023/07/08 03:24:06;;;;;;;1.50;0.90;;;21.30;90.70;;;;;;5007494;28;20479;-85
2023/07/08 03:26:34;;;;;;;1.50;0.90;;;21.20;90.70;;;;;;5005830;28;20542;-83
2023/07/08 03:29:01;;;;;;;1.47;0.90;;;21.20;91.50;;;;;;5006932;28;20723;-82
2023/07/08 03:31:27;;;;;;;1.47;0.90;;;21.10;91.00;;;;;;5007653;28;20471;-81
2023/07/08 03:33:54;;;;;;;1.40;0.90;;;21.10;91.80;;;;;;5007516;28;20888;-82
2023/07/08 03:36:23;;;;;;;1.50;0.90;;;21.10;90.80;;;;;;5009072;28;20494;-81
2023/07/08 03:38:52;;;;;;;1.47;0.90;;;21.10;91.30;;;;;;5010265;28;20523;-81
2023/07/08 03:41:19;;;;;;;1.50;0.90;;;21.10;91.70;;;;;;5006001;28;20474;-81
2023/07/08 03:43:46;;;;;;;1.47;0.90;;;21.10;91.20;;;;;;5004969;28;20456;-81
2023/07/08 03:46:14;;;;;;;1.47;0.90;;;21.10;91.50;;;;;;5006108;28;20475;-82
2023/07/08 03:48:41;;;;;;;1.47;0.90;;;21.10;91.40;;;;;;5007994;28;20483;-81
2023/07/08 03:51:10;;;;;;;1.50;0.90;;;21.20;91.60;;;;;;5011283;28;20474;-82
2023/07/08 03:53:37;;;;;;;1.50;0.90;;;21.20;91.50;;;;;;5010821;28;20460;-81
2023/07/08 03:56:05;;;;;;;1.50;0.90;;;21.20;89.90;;;;;;5012102;28;20555;-81
2023/07/08 03:58:32;;;;;;;1.47;0.90;;;21.20;87.80;;;;;;5004264;28;20492;-85
2023/07/08 04:00:59;;;;;;;1.43;0.90;;;21.20;87.50;;;;;;5000518;28;20491;-84
2023/07/08 04:03:26;;;;;;;1.47;0.90;;;21.20;86.90;;;;;;5010602;28;20463;-85
2023/07/08 04:05:53;;;;;;;1.43;0.90;;;21.20;87.40;;;;;;5011583;28;20455;-85
2023/07/08 04:08:19;;;;;;;1.47;0.90;;;21.30;87.90;;;;;;5016124;28;20476;-84
2023/07/08 04:10:46;;;;;;;1.47;0.90;;;21.30;87.70;;;;;;5008325;28;21218;-82
2023/07/08 04:13:14;;;;;;;1.47;0.90;;;21.30;88.70;;;;;;5010186;28;20498;-85
2023/07/08 04:15:41;;;;;;;1.43;0.90;;;21.40;89.10;;;;;;5010438;28;20460;-82
2023/07/08 04:18:08;;;;;;;1.43;0.90;;;21.40;89.30;;;;;;5011606;28;21135;-85
2023/07/08 04:20:35;;;;;;;1.47;0.90;;;21.40;89.50;;;;;;5011010;28;20474;-85
2023/07/08 04:23:02;;;;;;;1.47;0.90;;;21.40;89.60;;;;;;5013174;28;20464;-81
2023/07/08 04:25:29;;;;;;;1.47;0.90;;;21.40;89.90;;;;;;5011643;28;20460;-85
2023/07/08 04:27:56;;;;;;;1.47;0.90;;;21.40;89.40;;;;;;5011109;28;20743;-84
2023/07/08 04:30:26;;;;;;;1.47;0.90;;;21.30;89.60;;;;;;5011823;28;20469;-82
2023/07/08 04:32:53;;;;;;;1.50;1.00;;;21.30;90.00;;;;;;5014975;28;20985;-84
2023/07/08 04:35:20;;;;;;;1.43;0.90;;;21.30;91.70;;;;;;5014222;28;20470;-84
2023/07/08 04:37:47;;;;;;;1.47;0.90;;;21.30;91.00;;;;;;5019898;28;20555;-85
2023/07/08 04:40:19;;;;;;;1.40;0.90;;;21.20;91.80;;;;;;5015487;28;20484;-84
2023/07/08 04:42:47;;;;;;;1.43;0.90;;;21.20;91.70;;;;;;5017392;28;20491;-85
2023/07/08 04:45:16;;;;;;;1.50;0.90;;;21.10;91.80;;;;;;5012916;28;20460;-82
2023/07/08 04:47:51;;;;;;;1.50;0.90;;;21.10;90.20;;;;;;5014201;28;20456;-85
2023/07/08 04:50:19;;;;;;;1.43;0.90;;;21.00;90.40;;;;;;5014317;28;20467;-84
2023/07/08 04:52:46;;;;;;;1.43;0.90;;;21.00;90.70;;;;;;5014847;28;20831;-84
2023/07/08 04:58:35;;;;;;;1.47;0.90;;;20.90;91.00;;;;;;5009138;28;20514;-82
2023/07/08 05:01:02;;;;;;;1.43;0.90;;;20.90;89.00;;;;;;5021634;28;20468;-84
2023/07/08 05:03:30;;;;;;;1.47;0.90;;;20.90;88.90;;;;;;5025569;28;20471;-84
2023/07/08 05:05:56;;;;;;;1.43;0.90;;;20.90;89.50;;;;;;5026259;28;20467;-85
2023/07/08 05:08:23;;;;;;;1.47;0.90;;;21.00;89.90;;;;;;5028939;28;20477;-83
2023/07/08 05:10:50;;;;;;;1.90;1.60;;;21.20;89.00;;;;;;5027097;28;20800;-84
2023/07/08 05:13:17;;;;;;;1.40;0.90;;;21.40;89.20;;;;;;5028984;28;20460;-84
2023/07/08 05:15:43;;;;;;;1.47;0.90;;;21.60;87.50;;;;;;5022214;28;21099;-84
2023/07/08 05:18:10;;;;;;;1.47;0.90;;;21.90;87.10;;;;;;5025027;28;20474;-83
2023/07/08 05:20:38;;;;;;;1.43;0.90;;;22.10;85.40;;;;;;5023077;28;20459;-84
2023/07/08 05:23:05;;;;;;;1.43;0.90;;;22.20;84.00;;;;;;5029136;28;20464;-84
2023/07/08 05:25:33;;;;;;;1.43;0.90;;;22.30;83.70;;;;;;5021944;28;20511;-83
2023/07/08 05:28:00;;;;;;;1.47;0.90;;;22.40;83.70;;;;;;5022634;28;20551;-84
2023/07/08 05:30:27;;;;;;;1.47;0.90;;;22.50;82.80;;;;;;5022622;28;20451;-83
2023/07/08 05:32:54;;;;;;;1.50;0.90;;;22.60;82.60;;;;;;5024864;28;20460;-84
2023/07/08 05:35:21;;;;;;;1.87;1.17;;;22.60;83.20;;;;;;5023794;28;20480;-84
2023/07/08 05:37:49;;;;;;;1.50;0.90;;;22.80;83.20;;;;;;5027110;28;20471;-84
2023/07/08 05:40:16;;;;;;;1.50;0.90;;;22.80;82.70;;;;;;5021978;28;20505;-83
2023/07/08 05:42:43;;;;;;;1.43;0.80;;;22.80;82.50;;;;;;5023012;28;20460;-81
2023/07/08 05:45:11;;;;;;;1.50;0.90;;;22.70;83.00;;;;;;5028664;28;21561;-83
2023/07/08 05:47:37;;;;;;;1.50;1.10;;;22.70;82.80;;;;;;5026766;28;20463;-84
2023/07/08 05:50:05;;;;;;;1.47;0.90;;;22.70;83.30;;;;;;5026417;28;20459;-83
2023/07/08 05:52:32;;;;;;;1.43;0.90;;;22.80;82.60;;;;;;5022332;28;20460;-83
2023/07/08 05:55:00;;;;;;;1.50;0.90;;;22.90;82.10;;;;;;5026908;28;20488;-83
2023/07/08 05:57:27;;;;;;;1.47;0.90;;;23.00;83.70;;;;;;5029188;28;20478;-83
2023/07/08 05:59:54;;;;;;;1.50;0.90;;;23.20;82.50;;;;;;5024310;28;20596;-84
2023/07/08 06:02:23;;;;;;;5.57;2.03;;;23.40;82.10;;;;;;5023775;28;20473;-84
2023/07/08 06:04:49;;;;;;;1.50;0.90;;;23.60;81.20;;;;;;5021995;28;20843;-84
2023/07/08 06:07:16;;;;;;;1.47;0.90;;;23.80;78.70;;;;;;5024907;28;20739;-83
2023/07/08 06:09:43;;;;;;;1.50;1.10;;;23.90;78.10;;;;;;5023546;28;20452;-80
2023/07/08 06:12:12;;;;;;;1.50;0.90;;;24.10;78.10;;;;;;5027909;28;20470;-84
2023/07/08 06:14:39;;;;;;;1.50;0.90;;;24.40;77.50;;;;;;5027949;28;20466;-81
2023/07/08 06:17:06;;;;;;;1.43;0.90;;;24.60;76.40;;;;;;5024441;28;20474;-81
2023/07/08 06:19:34;;;;;;;2.17;1.97;;;24.80;75.60;;;;;;5024609;28;20509;-83
2023/07/08 06:22:00;;;;;;;1.57;1.17;;;25.00;74.70;;;;;;5023091;28;20984;-80
2023/07/08 06:24:27;;;;;;;1.40;0.80;;;25.20;75.30;;;;;;5026244;28;20467;-84
2023/07/08 06:26:54;;;;;;;2.27;1.20;;;25.50;74.60;;;;;;5022551;28;20506;-81
2023/07/08 06:29:22;;;;;;;1.47;0.90;;;25.70;73.80;;;;;;5022722;28;20463;-83
2023/07/08 06:31:49;;;;;;;1.43;0.87;;;25.80;72.20;;;;;;5027651;28;20471;-83
2023/07/08 06:34:15;;;;;;;1.47;0.90;;;25.80;73.20;;;;;;5025740;28;20614;-82
2023/07/08 06:36:43;;;;;;;1.50;0.80;;;26.00;73.10;;;;;;5022514;28;20476;-84
2023/07/08 06:39:11;;;;;;;1.43;0.83;;;26.10;72.20;;;;;;5027517;28;20498;-80
2023/07/08 06:41:38;;;;;;;1.47;0.80;;;26.30;72.40;;;;;;5027761;28;20464;-82
2023/07/08 06:44:05;;;;;;;1.47;0.90;;;26.50;69.80;;;;;;5027603;28;21063;-80
2023/07/08 06:46:33;;;;;;;1.43;0.87;;;26.50;69.80;;;;;;5022805;28;20549;-81
2023/07/08 06:49:00;;;;;;;1.73;1.50;;;26.60;69.90;;;;;;5024208;28;20718;-81
2023/07/08 06:51:28;;;;;;;1.47;0.80;;;26.80;69.90;;;;;;5025917;28;20971;-81
2023/07/08 06:53:55;;;;;;;1.50;1.00;;;27.00;69.20;;;;;;5021165;28;20796;-85
2023/07/08 06:56:22;;;;;;;1.50;0.80;;;27.10;67.50;;;;;;5027324;28;20502;-83
2023/07/08 06:58:48;;;;;;;1.50;0.90;;;27.20;69.30;;;;;;5021228;28;20554;-83
2023/07/08 07:01:15;;;;;;;1.60;1.00;;;27.30;67.80;;;;;;5024588;28;20949;-81
2023/07/08 07:03:45;;;;;;;1.47;0.90;;;27.40;67.90;;;;;;5023546;28;20512;-83
2023/07/08 07:06:12;;;;;;;1.50;0.90;;;27.60;66.10;;;;;;5023886;28;20480;-85
2023/07/08 07:08:38;;;;;;;1.50;0.80;;;27.60;65.80;;;;;;5022634;28;20475;-85
2023/07/08 07:11:05;;;;;;;1.50;0.80;;;27.60;65.10;;;;;;5018690;28;20451;-82
2023/07/08 07:13:32;;;;;;;1.40;0.80;;;27.70;65.50;;;;;;5020169;28;20459;-80
2023/07/08 07:16:03;;;;;;;1.50;0.83;;;27.80;64.50;;;;;;5024820;28;20511;-85
2023/07/08 07:18:30;;;;;;;1.50;0.80;;;27.70;64.60;;;;;;5025331;28;20545;-84
2023/07/08 07:20:59;;;;;;;1.50;1.00;;;27.90;65.00;;;;;;5027126;28;20483;-81
2023/07/08 07:23:26;;;;;;;1.43;0.90;;;28.10;64.70;;;;;;5026427;28;20462;-84
2023/07/08 07:25:53;;;;;;;1.50;0.90;;;28.20;64.40;;;;;;5019399;28;20561;-81
2023/07/08 07:28:20;;;;;;;1.60;1.00;;;28.20;64.40;;;;;;5018759;28;20557;-81
2023/07/08 07:30:48;;;;;;;1.40;0.80;;;28.10;64.00;;;;;;5017223;28;20668;-81
2023/07/08 07:33:14;;;;;;;1.43;0.80;;;27.80;63.80;;;;;;5017507;28;20913;-81
2023/07/08 07:35:44;;;;;;;1.50;0.90;;;27.50;64.60;;;;;;5020416;28;20505;-82
2023/07/08 07:38:14;;;;;;;1.40;0.80;;;27.40;64.60;;;;;;5027702;28;20848;-82
2023/07/08 07:40:41;;;;;;;1.50;0.83;;;27.50;65.80;;;;;;5027630;28;20517;-82
2023/07/08 07:43:08;;;;;;;1.43;0.80;;;27.60;65.60;;;;;;5025915;28;20491;-83
2023/07/08 07:45:38;;;;;;;1.40;0.80;;;27.70;65.60;;;;;;5027093;28;21115;-82
2023/07/08 07:48:05;;;;;;;1.40;0.80;;;27.80;65.40;;;;;;5015006;28;20525;-82
2023/07/08 07:50:34;;;;;;;1.47;0.80;;;28.10;65.40;;;;;;5018125;28;20475;-80
2023/07/08 07:53:01;;;;;;;1.50;0.90;;;28.40;65.10;;;;;;5011327;28;20690;-83
2023/07/08 07:55:29;;;;;;;1.43;0.80;;;28.70;64.20;;;;;;5019175;28;20565;-83
2023/07/08 07:57:56;;;;;;;2.03;1.27;;;29.10;63.90;;;;;;5022033;28;20475;-81
2023/07/08 08:00:23;;;;;;;1.47;0.80;;;29.30;62.60;;;;;;5021197;28;20871;-81
2023/07/08 08:02:50;;;;;;;1.47;0.80;;;29.50;63.10;;;;;;5021123;28;20462;-81
2023/07/08 08:05:17;;;;;;;1.43;0.80;;;29.60;62.40;;;;;;5020930;28;20497;-81
2023/07/08 08:07:44;;;;;;;1.40;0.80;;;29.60;61.50;;;;;;5021656;28;20471;-80
2023/07/08 08:10:11;;;;;;;1.43;0.90;;;29.70;61.30;;;;;;5018826;28;20462;-82
2023/07/08 08:12:39;;;;;;;1.47;0.83;;;29.80;61.30;;;;;;5021789;28;20897;-82
2023/07/08 08:15:08;;;;;;;1.60;1.50;;;30.00;61.20;;;;;;5023136;28;20928;-81
2023/07/08 08:17:36;;;;;;;1.47;0.90;;;30.10;60.50;;;;;;5025401;28;20472;-82
2023/07/08 08:20:03;;;;;;;1.47;0.80;;;30.20;60.30;;;;;;5017299;28;21031;-82
2023/07/08 08:22:30;;;;;;;1.47;0.90;;;30.30;60.10;;;;;;5024342;28;20877;-85
2023/07/08 08:25:15;;;;;;;1.50;0.97;;;30.20;60.00;;;;;;5026040;28;20883;-80
2023/07/08 08:27:43;;;;;;;1.47;0.80;;;29.90;60.30;;;;;;5015689;28;20470;-81
2023/07/08 08:30:12;;;;;;;1.43;0.80;;;29.80;61.00;;;;;;5022074;28;20465;-81
2023/07/08 08:32:39;;;;;;;1.50;0.93;;;29.70;61.40;;;;;;5021221;28;20516;-80
2023/07/08 08:35:06;;;;;;;1.47;0.90;;;29.60;61.70;;;;;;5019134;28;20521;-82
2023/07/08 08:37:33;;;;;;;1.43;0.80;;;29.50;61.80;;;;;;5022870;28;20490;-82
2023/07/08 08:40:00;;;;;;;1.47;0.80;;;29.60;62.20;;;;;;5023194;28;20491;-82
2023/07/08 08:42:31;;;;;;;1.43;0.80;;;29.70;61.90;;;;;;5023312;28;20450;-82
2023/07/08 08:45:01;;;;;;;1.43;0.90;;;29.80;62.00;;;;;;5022280;28;20577;-80
2023/07/08 08:47:38;;;;;;;1.40;0.80;;;30.10;62.40;;;;;;5022713;28;20536;-81
2023/07/08 08:50:20;;;;;;;1.43;0.80;;;30.50;62.00;;;;;;5021320;28;20454;-81
2023/07/08 08:52:47;;;;;;;1.60;1.27;;;30.80;61.30;;;;;;5020480;28;20469;-81
2023/07/08 08:55:16;;;;;;;1.47;0.80;;;31.00;59.90;;;;;;5023807;28;20478;-81
2023/07/08 08:57:50;;;;;;;1.50;0.80;;;31.20;60.40;;;;;;5019873;28;20481;-83
2023/07/08 09:00:29;;;;;;;1.47;0.80;;;31.30;60.20;;;;;;5021071;28;20486;-82
2023/07/08 09:03:03;;;;;;;1.50;0.90;;;31.30;59.50;;;;;;5018964;28;20471;-82
2023/07/08 09:05:30;;;;;;;3.17;2.93;;;31.50;59.80;;;;;;5022737;28;21096;-83
2023/07/08 09:08:11;;;;;;;1.50;0.80;;;31.70;58.80;;;;;;5018972;28;20474;-81
2023/07/08 09:10:46;;;;;;;1.43;0.80;;;31.90;59.90;;;;;;5012087;28;20459;-81
2023/07/08 09:13:20;;;;;;;1.43;0.80;;;32.00;58.00;;;;;;5017431;28;20466;-81
2023/07/08 09:15:55;;;;;;;1.50;0.80;;;32.00;57.70;;;;;;5019613;28;20223;-81
2023/07/08 09:18:28;;;;;;;1.47;0.80;;;32.30;59.90;;;;;;5018056;28;20535;-80
2023/07/08 09:20:56;;;;;;;1.40;0.80;;;32.70;59.20;;;;;;5021660;28;20702;-82
2023/07/08 09:23:27;;;;;;;1.40;0.80;;;32.90;57.00;;;;;;5020865;28;20466;-77
2023/07/08 09:25:58;;;;;;;1.80;1.33;;;32.90;56.70;;;;;;5022519;28;20228;-83
2023/07/08 09:28:37;;;;;;;1.40;0.80;;;32.90;56.60;;;;;;5021818;28;20201;-80
2023/07/08 09:31:07;;;;;;;1.40;0.80;;;33.00;56.80;;;;;;5022535;28;20700;-80
2023/07/08 09:33:38;;;;;;;1.40;0.80;;;33.20;56.30;;;;;;5026613;28;20307;-80
2023/07/08 09:36:18;;;;;;;1.50;0.90;;;33.30;55.80;;;;;;5027254;28;20299;-79
2023/07/08 09:38:49;;;;;;;1.50;0.90;;;33.40;56.60;;;;;;5015357;28;20704;-82
2023/07/08 09:41:29;;;;;;;2.10;1.73;;;33.50;55.40;;;;;;5019215;28;20734;-83
2023/07/08 09:44:23;;;;;;;1.43;0.80;;;33.60;55.10;;;;;;5017784;28;20268;-82
2023/07/08 09:46:51;;;;;;;1.43;0.80;;;33.80;55.70;;;;;;5016419;28;20642;-84
2023/07/08 09:49:28;;;;;;;1.45;0.80;;;33.90;55.50;;;;;;5019763;28;20255;-79
2023/07/08 09:51:55;;;;;;;1.40;0.80;;;34.00;55.50;;;;;;5018897;28;20287;-83
2023/07/08 09:54:24;;;;;;;1.42;0.80;;;34.20;54.70;;;;;;5017811;28;20205;-82
2023/07/08 09:56:58;;;;;;;1.40;0.82;;;34.00;55.70;;;;;;5016322;28;20224;-83
2023/07/08 09:59:31;;;;;;;1.42;0.80;;;34.10;55.40;;;;;;5012504;28;20250;-82
2023/07/08 10:02:01;;;;;;;1.50;0.90;;;34.20;56.00;;;;;;5020687;28;20315;-82
2023/07/08 10:04:28;;;;;;;1.45;0.90;;;34.20;55.50;;;;;;5019695;28;20823;-81
2023/07/08 10:06:56;;;;;;;1.50;1.00;;;34.10;55.20;;;;;;5021571;28;20224;-81
2023/07/08 10:09:26;;;;;;;1.40;0.80;;;34.10;55.40;;;;;;5019607;28;20213;-80
2023/07/08 10:11:59;;;;;;;1.60;1.13;;;34.20;55.00;;;;;;5013473;28;20216;-81
2023/07/08 10:14:31;;;;;;;1.40;0.80;;;34.40;55.40;;;;;;5019989;28;20699;-81
2023/07/08 10:17:00;;;;;;;1.40;0.80;;;34.50;54.20;;;;;;5020668;28;20227;-82
2023/07/08 10:19:27;;;;;;;1.70;1.27;;;34.50;54.30;;;;;;5018661;28;20622;-80
2023/07/08 10:22:10;;;;;;;1.50;1.00;;;34.60;55.30;;;;;;5021666;28;20700;-81
2023/07/08 10:24:49;;;;;;;1.40;0.80;;;34.90;55.70;;;;;;5024169;28;20211;-79
2023/07/08 10:27:25;;;;;;;1.42;0.80;;;35.10;55.10;;;;;;5013330;28;20576;-80
2023/07/08 10:29:59;;;;;;;1.40;0.80;;;35.50;54.60;;;;;;5018688;28;20294;-79
2023/07/08 10:32:36;;;;;;;1.40;0.80;;;35.80;54.20;;;;;;5020741;28;20224;-79
2023/07/08 10:35:13;;;;;;;1.40;0.80;;;35.90;53.60;;;;;;5020647;28;20309;-79
2023/07/08 10:37:51;;;;;;;1.40;0.80;;;36.00;52.90;;;;;;5020878;28;20479;-81
2023/07/08 10:40:34;;;;;;;1.50;1.00;;;36.00;53.20;;;;;;5017831;28;20401;-79
2023/07/08 10:43:19;;;;;;;1.40;0.80;;;36.20;53.30;;;;;;5019646;28;20701;-78
2023/07/08 10:45:54;;;;;;;2.30;1.00;;;36.60;53.90;;;;;;5016309;28;20223;-81
2023/07/08 10:48:39;;;;;;;1.50;1.20;;;36.80;53.20;;;;;;5015683;28;20211;-81
2023/07/08 10:51:17;;;;;;;1.40;0.80;;;36.90;52.80;;;;;;5020124;28;20215;-80
2023/07/08 10:53:57;;;;;;;1.40;0.80;;;36.90;53.50;;;;;;5020840;28;20294;-79
2023/07/08 10:56:32;;;;;;;1.40;0.80;;;37.00;52.10;;;;;;5020040;28;20416;-80
2023/07/08 10:59:20;;;;;;;1.40;0.80;;;37.00;53.10;;;;;;5013312;28;20761;-80
2023/07/08 11:02:13;;;;;;;1.40;0.80;;;37.00;52.00;;;;;;5012590;28;20224;-79
2023/07/08 11:05:05;;;;;;;1.40;0.80;;;36.90;52.20;;;;;;5017757;28;20216;-81
2023/07/08 11:07:40;;;;;;;1.40;0.80;;;36.90;52.70;;;;;;5018701;28;20215;-81
2023/07/08 11:10:15;;;;;;;1.40;0.80;;;37.00;51.60;;;;;;5026314;28;20203;-80
2023/07/08 11:12:48;;;;;;;1.40;0.80;;;36.90;51.20;;;;;;5033846;28;20462;-80
2023/07/08 11:15:22;;;;;;;1.40;0.80;;;36.80;52.10;;;;;;5029886;28;20228;-79
2023/07/08 11:18:07;;;;;;;1.40;0.80;;;36.90;52.60;;;;;;5029861;28;20204;-80
2023/07/08 11:20:41;;;;;;;1.60;1.13;;;37.20;52.30;;;;;;5023507;28;20235;-81
2023/07/08 11:23:20;;;;;;;1.40;0.80;;;37.30;51.40;;;;;;5022815;28;20831;-79
2023/07/08 11:25:49;;;;;;;1.33;0.80;;;37.50;51.20;;;;;;5019232;28;20235;-81
2023/07/08 11:28:21;;;;;;;1.40;0.80;;;37.60;51.80;;;;;;5017981;28;20479;-80
2023/07/08 11:30:51;;;;;;;1.38;0.80;;;37.90;51.70;;;;;;5017494;28;20693;-78
2023/07/08 11:33:21;;;;;;;1.40;0.80;;;38.20;52.10;;;;;;5019494;28;20228;-79
2023/07/08 11:35:52;;;;;;;1.40;0.80;;;38.50;50.40;;;;;;5027557;28;20300;-82
2023/07/08 11:38:21;;;;;;;1.38;0.80;;;38.60;50.40;;;;;;5019861;28;20204;-80
2023/07/08 11:40:54;;;;;;;1.40;0.80;;;38.70;49.00;;;;;;5019549;28;20310;-84
2023/07/08 11:43:24;;;;;;;1.40;0.80;;;38.80;49.30;;;;;;5021728;28;20219;-82
2023/07/08 11:45:54;;;;;;;1.40;0.80;;;38.80;49.20;;;;;;5022044;28;20235;-80
2023/07/08 11:48:26;;;;;;;1.40;1.00;;;38.80;48.80;;;;;;5023740;28;20212;-80
2023/07/08 11:50:55;;;;;;;1.38;0.80;;;38.70;48.60;;;;;;5024528;28;20709;-80
2023/07/08 11:53:37;;;;;;;1.38;0.80;;;38.70;50.00;;;;;;5023838;28;20204;-80
2023/07/08 11:56:23;;;;;;;1.40;0.80;;;38.70;48.60;;;;;;5024942;28;20331;-80
2023/07/08 11:59:14;;;;;;;1.38;0.80;;;38.90;48.90;;;;;;5023396;28;20651;-82
2023/07/08 12:01:48;;;;;;;1.40;0.80;;;39.10;49.40;;;;;;5018495;28;20228;-81
2023/07/08 12:04:26;;;;;;;1.40;0.90;;;39.30;49.40;;;;;;5025074;28;20208;-82
2023/07/08 12:07:17;;;;;;;1.38;0.80;;;39.50;48.70;;;;;;5024729;28;20291;-81
2023/07/08 12:10:02;;;;;;;1.38;0.80;;;39.50;47.70;;;;;;5023283;28;20219;-81
2023/07/08 12:12:32;;;;;;;1.40;0.80;;;39.50;48.40;;;;;;5024300;28;20196;-81
2023/07/08 12:15:16;;;;;;;1.40;0.80;;;39.70;47.30;;;;;;5019376;28;20838;-81
2023/07/08 12:17:47;;;;;;;1.38;0.80;;;39.60;47.80;;;;;;5024296;28;20208;-80
2023/07/08 12:20:19;;;;;;;4.05;1.83;;;39.50;47.60;;;;;;5020261;28;20327;-81
2023/07/08 12:22:48;;;;;;;1.40;0.90;;;39.30;47.90;;;;;;5019751;28;20633;-81
2023/07/08 12:25:17;;;;;;;1.40;0.90;;;39.30;48.80;;;;;;5022131;28;20243;-82
2023/07/08 12:27:44;;;;;;;1.35;0.80;;;39.30;48.30;;;;;;5022040;28;20204;-81
2023/07/08 12:30:12;;;;;;;1.40;0.90;;;39.20;48.50;;;;;;5019417;28;20228;-81
2023/07/08 12:32:41;;;;;;;1.38;0.80;;;39.20;47.90;;;;;;5017114;28;20215;-80
2023/07/08 12:35:18;;;;;;;1.40;0.90;;;39.10;47.40;;;;;;5020014;28;20239;-79
2023/07/08 12:37:47;;;;;;;1.35;0.80;;;38.90;47.90;;;;;;5023168;28;20659;-81
2023/07/08 12:40:15;;;;;;;1.35;0.80;;;38.80;47.20;;;;;;5018364;28;20678;-80
2023/07/08 12:42:42;;;;;;;1.40;0.80;;;38.90;48.20;;;;;;5023549;28;20569;-83
2023/07/08 12:45:18;;;;;;;1.38;0.80;;;39.10;48.60;;;;;;5019344;28;20706;-80
2023/07/08 12:47:46;;;;;;;1.35;0.80;;;39.40;48.30;;;;;;5021103;28;20753;-79
2023/07/08 12:50:14;;;;;;;1.38;0.80;;;39.60;47.30;;;;;;5020763;28;20484;-80
2023/07/08 12:52:43;;;;;;;1.35;0.80;;;39.70;47.60;;;;;;5018676;28;20262;-80
2023/07/08 12:55:12;;;;;;;1.33;0.80;;;39.90;46.60;;;;;;5018448;28;20233;-81
2023/07/08 12:57:42;;;;;;;1.38;0.80;;;39.90;47.50;;;;;;5021400;28;20493;-81
2023/07/08 13:00:15;;;;;;;1.40;0.80;;;40.00;46.60;;;;;;5022790;28;20214;-81
2023/07/08 13:02:46;;;;;;;1.40;0.80;;;40.00;46.90;;;;;;5024354;28;20607;-81
2023/07/08 13:05:13;;;;;;;1.38;0.80;;;40.10;46.10;;;;;;5019632;28;20294;-81